Time;durP1;ratioP1;P1;durP2;ratioP2;P2;SDS_P1;SDS_P2;PMS_P1;PMS_P2;Temp;Humidity;BMP_temperature;BMP_pressure;BME280_temperature;BME280_humidity;BME280_pressure;Samples;Min_cycle;Max_cycle;Signal;HPM_P1;HPM_P2
2021/10/27 00:00:12;;;;;;;27.17;13.93;;;;;;;;;;5071976;28;20033;-67
2021/10/27 00:02:38;;;;;;;23.88;12.18;;;;;;;;;;5072368;28;20104;-70
2021/10/27 00:05:05;;;;;;;22.27;11.73;;;;;;;;;;5053894;28;20021;-67
2021/10/27 00:07:31;;;;;;;22.85;12.00;;;;;;;;;;5074226;28;20074;-67
2021/10/27 00:09:58;;;;;;;23.10;11.00;;;;;;;;;;5075405;28;20040;-70
2021/10/27 00:12:24;;;;;;;23.10;11.27;;;;;;;;;;5075194;28;20020;-68
2021/10/27 00:14:50;;;;;;;23.45;12.57;;;;;;;;;;5075281;28;20028;-68
2021/10/27 00:17:16;;;;;;;28.67;13.77;;;;;;;;;;5075103;28;20021;-67
2021/10/27 00:19:42;;;;;;;26.27;13.90;;;;;;;;;;5075157;28;20020;-67
2021/10/27 00:22:08;;;;;;;24.02;12.73;;;;;;;;;;5075346;28;20100;-67
2021/10/27 00:24:34;;;;;;;23.75;12.10;;;;;;;;;;5075014;28;20103;-67
2021/10/27 00:27:00;;;;;;;27.35;13.45;;;;;;;;;;5074554;28;20023;-68
2021/10/27 00:29:26;;;;;;;23.95;12.27;;;;;;;;;;5056983;28;20131;-67
2021/10/27 00:31:52;;;;;;;25.67;12.90;;;;;;;;;;5074859;28;20008;-67
2021/10/27 00:34:18;;;;;;;29.38;12.95;;;;;;;;;;5074978;28;20503;-67
2021/10/27 00:36:44;;;;;;;25.48;12.95;;;;;;;;;;5074635;28;20052;-64
2021/10/27 00:39:10;;;;;;;26.40;13.85;;;;;;;;;;5074674;28;20092;-67
2021/10/27 00:41:36;;;;;;;24.73;13.23;;;;;;;;;;5056556;28;20486;-67
2021/10/27 00:44:02;;;;;;;26.10;15.13;;;;;;;;;;5074717;28;20091;-67
2021/10/27 00:46:28;;;;;;;28.50;14.80;;;;;;;;;;5074643;28;20032;-66
2021/10/27 00:48:54;;;;;;;28.67;14.35;;;;;;;;;;5074643;28;20025;-67
2021/10/27 00:51:20;;;;;;;27.33;14.68;;;;;;;;;;5074688;28;20460;-67
2021/10/27 00:53:47;;;;;;;25.92;14.40;;;;;;;;;;5056933;28;20020;-65
2021/10/27 00:56:13;;;;;;;25.25;13.93;;;;;;;;;;5074008;28;20092;-66
2021/10/27 00:58:40;;;;;;;30.05;15.23;;;;;;;;;;5074671;28;20024;-66
2021/10/27 01:01:07;;;;;;;26.55;14.77;;;;;;;;;;5074646;28;20016;-67
2021/10/27 01:03:35;;;;;;;28.48;15.02;;;;;;;;;;5075154;28;20012;-67
2021/10/27 01:06:01;;;;;;;31.63;15.93;;;;;;;;;;5074571;28;20020;-66
2021/10/27 01:08:27;;;;;;;30.60;16.33;;;;;;;;;;5056298;28;20499;-67
2021/10/27 01:10:54;;;;;;;29.60;17.65;;;;;;;;;;5060533;28;20020;-66
2021/10/27 01:13:20;;;;;;;30.20;16.83;;;;;;;;;;5094912;28;20020;-67
2021/10/27 01:15:46;;;;;;;28.35;15.43;;;;;;;;;;5094431;28;20020;-67
2021/10/27 01:18:12;;;;;;;28.52;16.52;;;;;;;;;;5075767;28;20077;-67
2021/10/27 01:20:39;;;;;;;30.40;17.58;;;;;;;;;;5077477;28;20023;-67
2021/10/27 01:23:04;;;;;;;31.13;16.95;;;;;;;;;;5095254;28;20015;-67
2021/10/27 01:25:30;;;;;;;29.13;17.02;;;;;;;;;;5076800;28;20020;-66
2021/10/27 01:27:56;;;;;;;30.40;14.95;;;;;;;;;;5095210;28;20020;-67
2021/10/27 01:30:24;;;;;;;28.40;16.35;;;;;;;;;;5095150;28;20026;-68
2021/10/27 01:32:51;;;;;;;30.55;17.05;;;;;;;;;;5094723;28;20016;-67
2021/10/27 01:35:17;;;;;;;34.70;19.25;;;;;;;;;;5094458;28;20027;-66
2021/10/27 01:37:44;;;;;;;31.63;18.50;;;;;;;;;;5076266;28;20131;-67
2021/10/27 01:40:14;;;;;;;28.60;18.10;;;;;;;;;;5076081;28;20020;-67
2021/10/27 01:42:41;;;;;;;29.90;17.90;;;;;;;;;;5094786;28;20016;-67
2021/10/27 01:45:07;;;;;;;30.90;17.88;;;;;;;;;;5094753;28;20486;-66
2021/10/27 01:47:33;;;;;;;32.88;18.95;;;;;;;;;;5094177;28;20024;-64
2021/10/27 01:49:59;;;;;;;30.65;17.75;;;;;;;;;;5094651;28;20596;-66
2021/10/27 01:52:52;;;;;;;27.58;16.60;;;;;;;;;;5076701;28;20023;-65
2021/10/27 01:55:17;;;;;;;28.58;16.52;;;;;;;;;;5094272;28;20056;-65
2021/10/27 01:57:43;;;;;;;31.38;17.95;;;;;;;;;;5076269;28;20020;-66
2021/10/27 02:00:09;;;;;;;33.55;18.58;;;;;;;;;;5094358;28;20565;-65
2021/10/27 02:02:35;;;;;;;30.70;17.25;;;;;;;;;;5094915;28;20012;-65
2021/10/27 02:05:01;;;;;;;30.85;18.25;;;;;;;;;;5093805;28;20490;-68
2021/10/27 02:07:28;;;;;;;31.67;17.15;;;;;;;;;;5075003;28;20031;-65
2021/10/27 02:09:54;;;;;;;30.10;18.10;;;;;;;;;;5093538;28;20043;-65
2021/10/27 02:12:20;;;;;;;34.35;18.17;;;;;;;;;;5075282;28;20024;-65
2021/10/27 02:14:46;;;;;;;28.70;16.02;;;;;;;;;;5093396;28;20093;-65
2021/10/27 02:17:12;;;;;;;29.33;16.70;;;;;;;;;;5093049;28;20436;-65
2021/10/27 02:19:38;;;;;;;31.98;17.38;;;;;;;;;;5093040;28;20069;-65
2021/10/27 02:22:04;;;;;;;31.38;17.35;;;;;;;;;;5093367;28;20030;-66
2021/10/27 02:24:30;;;;;;;29.08;17.73;;;;;;;;;;5074833;28;20491;-66
2021/10/27 02:26:56;;;;;;;33.10;17.85;;;;;;;;;;5092976;28;20043;-66
2021/10/27 02:29:22;;;;;;;31.35;17.90;;;;;;;;;;5093115;28;20020;-66
2021/10/27 02:31:48;;;;;;;34.10;18.92;;;;;;;;;;5093085;28;20138;-65
2021/10/27 02:34:14;;;;;;;29.08;18.88;;;;;;;;;;5092978;28;20016;-65
2021/10/27 02:36:40;;;;;;;30.38;19.25;;;;;;;;;;5092499;28;20024;-65
2021/10/27 02:39:08;;;;;;;30.83;18.15;;;;;;;;;;5092709;28;20017;-65
2021/10/27 02:41:34;;;;;;;31.70;19.67;;;;;;;;;;5092928;28;20012;-65
2021/10/27 02:44:00;;;;;;;33.08;21.00;;;;;;;;;;5092724;28;20086;-66
2021/10/27 02:46:26;;;;;;;32.50;20.05;;;;;;;;;;5092370;28;20062;-66
2021/10/27 02:48:52;;;;;;;37.33;21.95;;;;;;;;;;5092467;28;20024;-66
2021/10/27 02:51:18;;;;;;;31.17;19.52;;;;;;;;;;5092427;28;20452;-65
2021/10/27 02:53:44;;;;;;;35.85;21.98;;;;;;;;;;5092640;28;20073;-64
2021/10/27 02:56:10;;;;;;;37.45;22.77;;;;;;;;;;5092405;28;20031;-66
2021/10/27 02:58:36;;;;;;;35.42;24.80;;;;;;;;;;5092957;28;20016;-66
2021/10/27 03:01:02;;;;;;;34.63;20.77;;;;;;;;;;5092433;28;20077;-65
2021/10/27 03:03:28;;;;;;;35.17;23.58;;;;;;;;;;5092491;28;20024;-66
2021/10/27 03:05:54;;;;;;;38.17;24.38;;;;;;;;;;5092318;28;20043;-66
2021/10/27 03:08:20;;;;;;;35.83;22.27;;;;;;;;;;5092461;28;20131;-66
2021/10/27 03:10:47;;;;;;;36.88;23.48;;;;;;;;;;5089308;28;20070;-66
2021/10/27 03:13:13;;;;;;;34.35;19.63;;;;;;;;;;5072411;28;20357;-66
2021/10/27 03:15:39;;;;;;;36.22;21.05;;;;;;;;;;5072073;28;20084;-66
2021/10/27 03:18:05;;;;;;;34.88;20.65;;;;;;;;;;5072353;28;20096;-66
2021/10/27 03:20:31;;;;;;;33.45;19.38;;;;;;;;;;5072213;28;20483;-65
2021/10/27 03:23:00;;;;;;;34.92;20.75;;;;;;;;;;5072066;28;20021;-66
2021/10/27 03:25:26;;;;;;;35.78;21.58;;;;;;;;;;5071931;28;20078;-66
2021/10/27 03:27:52;;;;;;;34.88;21.98;;;;;;;;;;5071573;28;20403;-67
2021/10/27 03:30:18;;;;;;;32.50;20.52;;;;;;;;;;5071958;28;20024;-66
2021/10/27 03:32:44;;;;;;;33.40;20.02;;;;;;;;;;5071952;28;20024;-65
2021/10/27 03:35:11;;;;;;;34.80;21.00;;;;;;;;;;5054196;28;20020;-66
2021/10/27 03:37:37;;;;;;;31.48;18.35;;;;;;;;;;5071721;28;20016;-66
2021/10/27 03:40:04;;;;;;;31.30;18.83;;;;;;;;;;5072129;28;20413;-66
2021/10/27 03:42:30;;;;;;;34.20;21.67;;;;;;;;;;5059389;28;20016;-66
2021/10/27 03:44:56;;;;;;;34.92;21.40;;;;;;;;;;5078405;28;20031;-66
2021/10/27 03:47:22;;;;;;;32.22;20.83;;;;;;;;;;5078045;28;20021;-66
2021/10/27 03:49:49;;;;;;;30.08;18.65;;;;;;;;;;5078179;28;20488;-66
2021/10/27 03:52:15;;;;;;;35.95;21.85;;;;;;;;;;5060352;28;20108;-66
2021/10/27 03:54:41;;;;;;;34.80;21.85;;;;;;;;;;5060499;28;20380;-68
2021/10/27 03:57:07;;;;;;;31.90;17.42;;;;;;;;;;5077773;28;20024;-66
2021/10/27 03:59:33;;;;;;;32.72;21.75;;;;;;;;;;5060129;28;20024;-66
2021/10/27 04:02:00;;;;;;;39.97;22.65;;;;;;;;;;5078345;28;20025;-66
2021/10/27 04:04:26;;;;;;;35.83;22.35;;;;;;;;;;5060497;28;20423;-66
2021/10/27 04:06:51;;;;;;;35.67;21.45;;;;;;;;;;5077782;28;20066;-66
2021/10/27 04:09:17;;;;;;;34.78;21.83;;;;;;;;;;5060100;28;20020;-66
2021/10/27 04:11:44;;;;;;;37.60;23.35;;;;;;;;;;5078101;28;20082;-66
2021/10/27 04:14:10;;;;;;;33.63;22.67;;;;;;;;;;5078219;28;20066;-67
2021/10/27 04:16:36;;;;;;;36.03;20.80;;;;;;;;;;5077669;28;20384;-66
2021/10/27 04:19:03;;;;;;;35.03;22.02;;;;;;;;;;5078167;28;20016;-67
2021/10/27 04:21:29;;;;;;;31.88;20.20;;;;;;;;;;5077726;28;20104;-66
2021/10/27 04:23:55;;;;;;;40.40;24.02;;;;;;;;;;5078220;28;20052;-66
2021/10/27 04:26:21;;;;;;;33.13;19.45;;;;;;;;;;5059679;28;20115;-66
2021/10/27 04:28:47;;;;;;;34.28;19.23;;;;;;;;;;5077971;28;20024;-66
2021/10/27 04:31:13;;;;;;;35.60;21.45;;;;;;;;;;5077472;28;20021;-67
2021/10/27 04:33:39;;;;;;;33.20;20.77;;;;;;;;;;5078031;28;20032;-68
2021/10/27 04:36:05;;;;;;;31.27;21.55;;;;;;;;;;5077353;28;20028;-66
2021/10/27 04:38:31;;;;;;;32.65;20.90;;;;;;;;;;5059828;28;20107;-66
2021/10/27 04:40:57;;;;;;;31.42;19.60;;;;;;;;;;5059781;28;20375;-66
2021/10/27 04:43:23;;;;;;;33.33;20.58;;;;;;;;;;5078276;28;20024;-67
2021/10/27 04:45:49;;;;;;;32.63;20.17;;;;;;;;;;5077432;28;20138;-66
2021/10/27 04:48:15;;;;;;;29.42;17.70;;;;;;;;;;5059363;28;20020;-65
2021/10/27 04:50:41;;;;;;;33.33;20.63;;;;;;;;;;5077255;28;20041;-66
2021/10/27 04:53:17;;;;;;;28.90;17.60;;;;;;;;;;5074647;28;20016;-67
2021/10/27 04:55:44;;;;;;;27.77;16.65;;;;;;;;;;5055881;28;20082;-67
2021/10/27 04:58:10;;;;;;;30.25;17.65;;;;;;;;;;5074173;28;20052;-68
2021/10/27 05:00:36;;;;;;;28.92;16.73;;;;;;;;;;5092149;22;21029;-65
2021/10/27 05:03:03;;;;;;;28.95;16.38;;;;;;;;;;5076276;28;20047;-65
2021/10/27 05:05:29;;;;;;;29.60;15.30;;;;;;;;;;5075391;28;20024;-65
2021/10/27 05:07:59;;;;;;;27.80;16.70;;;;;;;;;;5075440;28;20028;-65
2021/10/27 05:10:25;;;;;;;30.52;18.50;;;;;;;;;;5075711;28;20021;-65
2021/10/27 05:12:51;;;;;;;27.77;15.63;;;;;;;;;;5055569;28;20036;-65
2021/10/27 05:15:17;;;;;;;25.33;14.98;;;;;;;;;;5055325;28;20035;-64
2021/10/27 05:17:43;;;;;;;25.90;14.65;;;;;;;;;;5055346;28;20449;-65
2021/10/27 05:20:09;;;;;;;27.55;12.73;;;;;;;;;;5055337;28;20070;-65
2021/10/27 05:22:35;;;;;;;27.60;12.77;;;;;;;;;;5055455;28;20085;-63
2021/10/27 05:25:01;;;;;;;25.60;11.30;;;;;;;;;;5055626;28;20112;-66
2021/10/27 05:27:30;;;;;;;26.23;11.95;;;;;;;;;;5054977;28;20032;-65
2021/10/27 05:29:56;;;;;;;25.20;10.45;;;;;;;;;;5055836;28;20024;-64
2021/10/27 05:32:24;;;;;;;22.92;11.93;;;;;;;;;;5055352;28;20029;-65
2021/10/27 05:34:50;;;;;;;30.13;11.98;;;;;;;;;;5055195;28;20032;-65
2021/10/27 05:37:16;;;;;;;25.27;11.80;;;;;;;;;;5055041;28;20047;-65
2021/10/27 05:39:42;;;;;;;25.30;12.15;;;;;;;;;;5055071;28;20094;-66
2021/10/27 05:42:13;;;;;;;24.80;11.20;;;;;;;;;;5055188;28;20035;-65
2021/10/27 05:44:39;;;;;;;24.00;11.23;;;;;;;;;;5054794;28;20025;-64
2021/10/27 05:47:05;;;;;;;28.02;10.40;;;;;;;;;;5055077;28;20025;-65
2021/10/27 05:49:37;;;;;;;20.42;9.88;;;;;;;;;;5054908;28;20028;-64
2021/10/27 05:57:44;;;;;;;24.10;10.65;;;;;;;;;;5030199;28;20120;-64
2021/10/27 06:00:10;;;;;;;25.15;10.52;;;;;;;;;;5013947;28;20083;-65
2021/10/27 06:02:37;;;;;;;22.00;10.77;;;;;;;;;;5033223;28;20036;-64
2021/10/27 06:05:03;;;;;;;24.35;9.38;;;;;;;;;;5054756;28;20452;-66
2021/10/27 06:07:31;;;;;;;21.15;9.40;;;;;;;;;;5053589;28;20024;-64
2021/10/27 06:09:57;;;;;;;21.25;8.93;;;;;;;;;;5053679;28;20384;-64
2021/10/27 06:12:23;;;;;;;21.88;8.40;;;;;;;;;;5069985;28;20081;-64
2021/10/27 06:14:49;;;;;;;22.33;10.35;;;;;;;;;;5073996;28;20024;-63
2021/10/27 06:17:16;;;;;;;22.73;8.93;;;;;;;;;;5073384;28;20020;-64
2021/10/27 06:19:42;;;;;;;19.33;8.43;;;;;;;;;;5073817;28;20020;-64
2021/10/27 06:22:09;;;;;;;20.48;8.93;;;;;;;;;;5063753;28;20111;-64
2021/10/27 06:24:35;;;;;;;20.58;9.35;;;;;;;;;;5061860;28;20021;-64
2021/10/27 06:27:03;;;;;;;22.23;8.48;;;;;;;;;;5063451;28;20020;-65
2021/10/27 06:29:38;;;;;;;21.87;9.30;;;;;;;;;;5063314;28;20020;-64
2021/10/27 06:32:21;;;;;;;20.90;8.55;;;;;;;;;;5063893;28;20035;-65
2021/10/27 06:34:57;;;;;;;19.52;8.10;;;;;;;;;;5064612;28;20541;-65
2021/10/27 06:48:36;;;;;;;20.00;8.15;;;;;;;;;;5071508;28;20063;-65
2021/10/27 06:51:02;;;;;;;21.42;8.07;;;;;;;;;;5053135;28;20098;-64
2021/10/27 06:53:29;;;;;;;20.17;6.93;;;;;;;;;;5053364;28;20111;-66
2021/10/27 06:55:55;;;;;;;19.77;7.95;;;;;;;;;;5052910;28;20060;-65
2021/10/27 06:58:22;;;;;;;17.00;6.63;;;;;;;;;;5053049;28;20070;-65
2021/10/27 07:00:51;;;;;;;20.10;8.27;;;;;;;;;;5053307;28;20495;-63
2021/10/27 07:03:47;;;;;;;17.02;6.95;;;;;;;;;;5053060;28;20025;-65
2021/10/27 07:16:38;;;;;;;16.85;7.45;;;;;;;;;;5090410;28;20408;-65
2021/10/27 07:19:04;;;;;;;22.23;7.10;;;;;;;;;;5073150;28;20020;-66
2021/10/27 07:21:31;;;;;;;18.27;7.00;;;;;;;;;;5072962;28;20031;-66
2021/10/27 07:23:57;;;;;;;17.67;6.72;;;;;;;;;;5072981;28;20561;-65
2021/10/27 07:26:24;;;;;;;22.63;8.13;;;;;;;;;;5071788;28;20035;-65
2021/10/27 07:28:53;;;;;;;22.25;8.27;;;;;;;;;;5053352;28;20044;-65
2021/10/27 07:31:19;;;;;;;20.27;6.95;;;;;;;;;;5053160;28;20036;-65
2021/10/27 07:33:56;;;;;;;20.95;7.65;;;;;;;;;;5053181;28;20486;-65
2021/10/27 07:41:33;;;;;;;19.33;7.30;;;;;;;;;;5071315;28;20039;-66
2021/10/27 07:44:03;;;;;;;22.08;7.57;;;;;;;;;;5053290;28;20400;-66
2021/10/27 07:46:29;;;;;;;19.15;7.68;;;;;;;;;;5053024;28;20032;-65
2021/10/27 07:48:55;;;;;;;17.60;7.65;;;;;;;;;;5053187;28;20230;-67
2021/10/27 07:51:21;;;;;;;18.92;7.53;;;;;;;;;;5053146;28;20494;-67
2021/10/27 07:53:50;;;;;;;19.15;6.88;;;;;;;;;;5053038;28;20328;-66
2021/10/27 07:56:16;;;;;;;18.58;7.40;;;;;;;;;;5052683;28;20443;-67
2021/10/27 07:58:42;;;;;;;18.02;7.05;;;;;;;;;;5053118;28;20119;-68
2021/10/27 08:01:08;;;;;;;22.13;7.43;;;;;;;;;;5052924;28;20040;-67
2021/10/27 08:03:34;;;;;;;20.77;7.10;;;;;;;;;;5052613;28;20027;-69
2021/10/27 08:06:05;;;;;;;17.63;8.57;;;;;;;;;;5052728;28;20036;-66
2021/10/27 08:08:32;;;;;;;19.77;6.97;;;;;;;;;;5052995;28;20025;-67
2021/10/27 08:10:59;;;;;;;22.42;7.15;;;;;;;;;;5057594;28;20024;-67
2021/10/27 08:13:25;;;;;;;16.58;5.93;;;;;;;;;;5073243;28;20512;-67
2021/10/27 08:15:51;;;;;;;19.98;6.68;;;;;;;;;;5073055;28;20483;-67
2021/10/27 08:18:17;;;;;;;22.45;7.60;;;;;;;;;;5072898;28;20024;-66
2021/10/27 08:20:45;;;;;;;38.63;7.60;;;;;;;;;;5072976;28;20051;-66
2021/10/27 08:23:12;;;;;;;17.73;6.93;;;;;;;;;;5072807;28;20040;-67
2021/10/27 08:25:47;;;;;;;17.95;6.78;;;;;;;;;;5070691;28;20097;-67
2021/10/27 08:28:17;;;;;;;19.00;7.80;;;;;;;;;;5064280;28;20032;-69
2021/10/27 08:31:34;;;;;;;18.35;6.68;;;;;;;;;;5067164;28;20021;-70
2021/10/27 08:33:47;;;;;;;18.63;7.65;;;;;;;;;;5081001;28;20357;-66
2021/10/27 08:36:13;;;;;;;16.85;6.45;;;;;;;;;;5065129;28;20028;-66
2021/10/27 08:38:39;;;;;;;22.77;7.60;;;;;;;;;;5091171;28;20018;-66
2021/10/27 08:41:05;;;;;;;21.45;7.65;;;;;;;;;;5059275;28;20028;-67
2021/10/27 08:43:32;;;;;;;18.55;7.53;;;;;;;;;;5083169;28;20484;-67
2021/10/27 08:46:00;;;;;;;17.02;7.07;;;;;;;;;;5065257;28;20034;-69
2021/10/27 08:48:27;;;;;;;17.38;6.70;;;;;;;;;;5066378;28;20029;-66
2021/10/27 08:50:53;;;;;;;17.83;7.22;;;;;;;;;;5064954;28;20037;-67
2021/10/27 08:53:24;;;;;;;16.63;6.78;;;;;;;;;;5067211;28;20020;-66
2021/10/27 08:55:51;;;;;;;19.95;6.95;;;;;;;;;;5064234;28;20107;-69
2021/10/27 08:58:28;;;;;;;16.88;6.25;;;;;;;;;;5056438;28;20025;-67
2021/10/27 09:15:21;;;;;;;16.75;6.47;;;;;;;;;;5030587;28;20493;-67
2021/10/27 09:35:10;;;;;;;17.23;6.72;;;;;;;;;;5030236;28;20404;-64
2021/10/27 09:43:09;;;;;;;20.00;7.03;;;;;;;;;;5072131;28;20020;-64
2021/10/27 10:05:20;;;;;;;18.27;5.88;;;;;;;;;;5072775;28;20090;-65
2021/10/27 10:07:46;;;;;;;18.75;6.75;;;;;;;;;;5054401;28;20559;-63
2021/10/27 10:10:13;;;;;;;19.67;7.20;;;;;;;;;;5054795;28;20545;-65
2021/10/27 10:12:42;;;;;;;16.90;7.97;;;;;;;;;;5072005;28;20123;-63
2021/10/27 10:15:08;;;;;;;16.30;8.32;;;;;;;;;;5074140;28;20039;-66
2021/10/27 10:17:35;;;;;;;16.90;6.85;;;;;;;;;;5073987;28;20479;-61
2021/10/27 10:20:01;;;;;;;18.45;7.22;;;;;;;;;;5074162;28;20382;-65
2021/10/27 10:22:28;;;;;;;17.83;7.25;;;;;;;;;;5074496;28;20020;-65
2021/10/27 10:24:54;;;;;;;16.52;7.65;;;;;;;;;;5074969;28;20024;-63
2021/10/27 10:27:39;;;;;;;22.13;8.75;;;;;;;;;;5074358;28;20016;-64
2021/10/27 10:30:24;;;;;;;16.50;8.02;;;;;;;;;;5075255;28;20020;-64
2021/10/27 10:33:07;;;;;;;16.60;7.35;;;;;;;;;;5074441;28;20055;-64
2021/10/27 10:35:49;;;;;;;20.33;7.60;;;;;;;;;;5074746;28;20081;-64
2021/10/27 10:38:26;;;;;;;17.48;7.38;;;;;;;;;;5074629;28;20024;-65
2021/10/27 11:24:30;;;;;;;15.07;8.13;;;;;;;;;;5053257;28;20040;-66
2021/10/27 11:27:23;;;;;;;15.40;8.38;;;;;;;;;;5049940;28;20028;-67
2021/10/27 11:38:18;;;;;;;17.08;8.00;;;;;;;;;;5070119;28;20036;-70
2021/10/27 11:40:46;;;;;;;18.13;8.00;;;;;;;;;;5067005;28;20369;-67
2021/10/27 11:45:42;;;;;;;17.65;9.63;;;;;;;;;;5071392;28;20025;-65
2021/10/27 11:48:21;;;;;;;17.35;9.82;;;;;;;;;;4365442;28;10000701;-68
2021/10/27 11:50:48;;;;;;;17.58;10.25;;;;;;;;;;5064804;28;20027;-68
2021/10/27 11:53:33;;;;;;;19.35;10.02;;;;;;;;;;5067478;28;20054;-69
2021/10/27 11:56:09;;;;;;;17.38;9.95;;;;;;;;;;4714326;28;9999595;-68
2021/10/27 11:58:41;;;;;;;17.35;10.48;;;;;;;;;;5066291;28;20016;-67
2021/10/27 12:01:08;;;;;;;19.17;9.60;;;;;;;;;;5066029;28;20073;-67
2021/10/27 12:03:38;;;;;;;19.65;10.13;;;;;;;;;;5071264;28;20029;-68
2021/10/27 12:06:12;;;;;;;16.17;9.35;;;;;;;;;;5072888;28;20804;-67
2021/10/27 12:09:01;;;;;;;16.38;9.23;;;;;;;;;;5070263;28;20020;-68
2021/10/27 12:19:12;;;;;;;16.42;9.05;;;;;;;;;;5074420;28;20361;-68
2021/10/27 12:21:45;;;;;;;18.27;9.73;;;;;;;;;;5073103;28;20363;-68
2021/10/27 12:24:14;;;;;;;16.65;10.52;;;;;;;;;;5072389;28;20087;-66
2021/10/27 12:26:41;;;;;;;19.13;11.48;;;;;;;;;;5073638;28;20098;-66
2021/10/27 12:29:16;;;;;;;16.05;9.98;;;;;;;;;;5069708;28;20052;-66
2021/10/27 12:31:45;;;;;;;18.33;11.10;;;19.80;99.90;;;;;;5074861;28;20040;-69
2021/10/27 12:34:18;;;;;;;17.50;10.90;;;;;;;;;;5074769;28;20179;-66
2021/10/27 12:36:44;;;;;;;15.43;9.45;;;;;;;;;;5074122;28;20040;-68
2021/10/27 12:42:05;;;;;;;18.83;11.07;;;;;;;;;;5074378;28;20054;-68
2021/10/27 12:44:32;;;;;;;17.20;10.20;;;;;;;;;;5073144;28;20387;-67
2021/10/27 12:47:29;;;;;;;17.10;10.38;;;20.60;99.90;;;;;;5073829;28;20032;-68
2021/10/27 12:50:04;;;;;;;17.55;11.07;;;;;;;;;;5073746;28;20108;-67
2021/10/27 12:52:31;;;;;;;17.15;10.38;;;;;;;;;;5072238;28;20056;-65
2021/10/27 12:55:08;;;;;;;17.20;9.85;;;;;;;;;;5072148;28;20468;-65
2021/10/27 12:57:51;;;;;;;17.73;9.70;;;;;;;;;;5073130;28;20029;-66
2021/10/27 13:00:21;;;;;;;17.45;10.63;;;;;;;;;;5072108;28;20132;-66
2021/10/27 13:03:02;;;;;;;20.33;10.68;;;;;;;;;;5073363;28;20639;-67
2021/10/27 13:05:35;;;;;;;18.58;11.32;;;;;;;;;;5071898;28;20032;-67
2021/10/27 13:08:09;;;;;;;16.45;10.32;;;;;;;;;;5073455;28;20020;-66
2021/10/27 13:10:48;;;;;;;18.42;10.63;;;;;;;;;;5073122;28;20099;-67
2021/10/27 13:13:30;;;;;;;17.98;10.07;;;;;;;;;;5073122;28;20017;-67
2021/10/27 13:21:37;;;;;;;18.42;10.40;;;;;;;;;;5073132;28;20118;-68
2021/10/27 13:29:37;;;;;;;17.55;9.57;;;;;;;;;;5072969;28;20031;-65
2021/10/27 13:32:04;;;;;;;19.05;9.93;;;;;;;;;;5071137;28;20017;-68
2021/10/27 13:34:30;;;;;;;20.95;9.20;;;;;;;;;;5072952;28;20024;-67
2021/10/27 13:36:56;;;;;;;21.38;9.80;;;;;;;;;;5070453;28;20046;-66
2021/10/27 13:39:23;;;;;;;20.27;9.32;;;;;;;;;;5072623;28;20016;-65
2021/10/27 13:41:55;;;;;;;17.45;9.90;;;;;;;;;;5070379;28;20090;-68
2021/10/27 13:44:24;;;;;;;17.55;9.13;;;;;;;;;;5070134;28;20024;-68
2021/10/27 13:57:52;;;;;;;17.10;8.93;;;;;;;;;;5070301;28;20135;-67
2021/10/27 14:08:41;;;;;;;18.35;9.10;;;;;;;;;;5070972;28;20595;-66
2021/10/27 14:18:54;;;;;;;16.98;9.60;;;;;;;;;;5071464;28;20526;-66
2021/10/27 14:50:35;;;;;;;15.90;9.93;;;;;;;;;;5071001;28;20027;-64
2021/10/27 15:15:30;;;;;;;18.48;11.00;;;;;;;;;;5070611;28;20108;-67
2021/10/27 15:21:26;;;;;;;16.08;8.32;;;;;;;;;;5050722;28;20028;-67
2021/10/27 15:29:25;;;;;;;18.65;7.82;;;;;;;;;;5050857;28;20059;-68
2021/10/27 15:37:20;;;;;;;16.55;7.70;;;;;;;;;;5050148;28;20047;-66
2021/10/27 15:42:52;;;;;;;15.85;7.95;;;;;;;;;;5050827;28;20040;-66
2021/10/27 15:53:22;;;;;;;19.77;7.40;;;;;;;;;;5071055;28;20028;-66
2021/10/27 15:55:48;;;;;;;16.35;7.50;;;;;;;;;;5068841;28;20039;-66
2021/10/27 15:58:14;;;;;;;18.50;7.50;;;;;;;;;;4718233;28;9999843;-68
2021/10/27 16:00:41;;;;;;;20.85;7.65;;;;;;;;;;5068861;28;20043;-66
2021/10/27 16:03:08;;;;;;;15.63;7.05;;;;;;;;;;5070464;28;20021;-69
2021/10/27 16:05:42;;;;;;;15.36;6.46;;;;;;;;;;4720003;28;10001174;-67
2021/10/27 16:08:09;;;;;;;16.80;7.22;;;;;;;;;;5065585;28;20078;-66
2021/10/27 16:10:36;;;;;;;18.80;7.15;;;;;;;;;;5067440;28;20103;-68
2021/10/27 16:13:03;;;;;;;18.48;6.38;;;;;;;;;;5067407;28;20024;-67
2021/10/27 16:18:01;;;;;;;15.93;7.10;;;;;;;;;;5067431;28;20180;-66
2021/10/27 16:20:27;;;;;;;18.05;6.82;;;;;;;;;;5066585;28;20135;-66
2021/10/27 16:22:53;;;;;;;17.63;6.72;;;;;;;;;;5066807;28;20055;-66
2021/10/27 16:25:19;;;;;;;17.67;6.80;;;;;;;;;;5068014;28;20108;-67
2021/10/27 16:27:45;;;;;;;16.45;6.75;;;;;;;;;;5067750;28;20023;-66
2021/10/27 16:30:12;;;;;;;20.83;6.38;;;;;;;;;;5067972;28;20016;-67
2021/10/27 16:32:38;;;;;;;17.30;6.93;;;;;;;;;;5068281;28;20021;-67
2021/10/27 16:35:04;;;;;;;16.27;6.80;;;;;;;;;;5066294;28;20033;-67
2021/10/27 16:37:30;;;;;;;17.17;6.60;;;;;;;;;;5068036;28;20697;-66
2021/10/27 16:39:56;;;;;;;18.05;6.28;;;;;;;;;;5068491;28;20052;-67
2021/10/27 16:42:23;;;;;;;16.80;6.75;;;;;;;;;;5068043;28;20031;-67
2021/10/27 16:44:49;;;;;;;17.45;6.32;;;;;;;;;;5066937;28;20021;-65
2021/10/27 16:47:16;;;;;;;16.77;7.43;;;;;;;;;;5068178;28;20636;-66
2021/10/27 16:49:42;;;;;;;18.35;7.28;;;;;;;;;;5069831;28;20028;-65
2021/10/27 16:52:09;;;;;;;20.58;7.10;;;;;;;;;;5071917;28;20364;-66
2021/10/27 16:54:35;;;;;;;18.83;6.97;;;;;;;;;;5073242;28;20013;-66
2021/10/27 16:57:01;;;;;;;18.33;6.78;;;;;;;;;;5071246;28;20025;-65
2021/10/27 16:59:27;;;;;;;17.65;6.65;;;;;;;;;;5071711;28;20378;-65
2021/10/27 17:01:53;;;;;;;16.73;6.80;;;;;;;;;;5073080;28;20020;-66
2021/10/27 17:04:20;;;;;;;23.30;7.85;;;;;;;;;;5073197;28;20017;-66
2021/10/27 17:06:47;;;;;;;17.20;6.43;;;;;;;;;;4720449;28;9999866;-66
2021/10/27 17:09:13;;;;;;;14.98;6.78;;;;;;;;;;5069325;28;20112;-65
2021/10/27 17:11:39;;;;;;;18.85;6.75;;;;;;;;;;5070653;28;20044;-66
2021/10/27 17:14:05;;;;;;;17.98;6.68;;;;;;;;;;5070767;28;20009;-66
2021/10/27 17:16:33;;;;;;;16.50;6.53;;;;;;;;;;5068856;28;20060;-66
2021/10/27 17:18:59;;;;;;;17.53;7.17;;;;;;;;;;5070847;28;20013;-68
2021/10/27 17:21:26;;;;;;;22.85;6.95;;;;;;;;;;5070913;28;20077;-66
2021/10/27 17:23:54;;;;;;;19.05;6.75;;;;;;;;;;5070354;28;20013;-66
2021/10/27 17:26:20;;;;;;;16.30;6.45;;;;;;;;;;5070346;28;20415;-67
2021/10/27 17:28:46;;;;;;;19.23;9.65;;;;;;;;;;5069021;28;20032;-67
2021/10/27 17:31:13;;;;;;;20.08;7.15;;;;;;;;;;5068925;28;20028;-68
2021/10/27 17:33:39;;;;;;;20.75;7.50;;;;;;;;;;5070431;28;20474;-67
2021/10/27 17:36:09;;;;;;;22.02;8.27;;;;;;;;;;5069734;28;20027;-66
2021/10/27 17:38:35;;;;;;;17.10;7.05;;;;;;;;;;5069545;28;20074;-65
2021/10/27 17:41:01;;;;;;;15.80;6.88;;;;;;;;;;5067727;28;20020;-67
2021/10/27 17:43:27;;;;;;;19.00;7.68;;;;;;;;;;5069932;28;20024;-67
2021/10/27 17:45:54;;;;;;;19.23;6.82;;;;;;;;;;5067716;28;20020;-67
2021/10/27 17:48:30;;;;;;;16.75;7.00;;;;;;;;;;5069736;28;20160;-66
2021/10/27 17:58:35;;;;;;;17.17;6.88;;;;;;;;;;5068539;28;20031;-66
2021/10/27 18:01:02;;;;;;;17.05;7.63;;;;;;;;;;5068677;28;20338;-67
2021/10/27 18:03:30;;;;;;;20.23;7.72;;;;;;;;;;5069389;28;20471;-66
2021/10/27 18:05:56;;;;;;;16.50;6.45;;;;;;;;;;5067346;28;20035;-66
2021/10/27 18:08:23;;;;;;;18.17;7.63;;;;;;;;;;5069147;28;20032;-66
2021/10/27 18:10:55;;;;;;;19.15;6.88;;;;;;;;;;5069800;28;20107;-68
2021/10/27 18:13:24;;;;;;;20.40;8.73;;;;;;;;;;5068606;28;20082;-68
2021/10/27 18:15:54;;;;;;;18.33;7.20;;;;;;;;;;5071925;28;20016;-67
2021/10/27 18:18:29;;;;;;;19.58;7.40;;;;;;;;;;5072004;28;20016;-67
2021/10/27 18:20:57;;;;;;;18.48;7.63;;;;;;;;;;5071019;28;20030;-66
2021/10/27 18:39:58;;;;;;;20.60;7.70;;;;;;;;;;5070045;28;20425;-65
2021/10/27 18:42:30;;;;;;;17.35;7.05;;;;;;;;;;5069287;28;20107;-66
2021/10/27 18:44:56;;;;;;;18.58;7.07;;;;;;;;;;5069186;28;20460;-68
2021/10/27 18:47:26;;;;;;;18.27;7.18;;;;;;;;;;5068938;28;20103;-67
2021/10/27 18:49:52;;;;;;;19.77;7.38;;;;;;;;;;5068565;28;20017;-67
2021/10/27 19:11:19;;;;;;;16.95;7.05;;;;;;;;;;5072900;28;20032;-67
2021/10/27 19:16:11;;;;;;;20.90;8.15;;;;;;;;;;5072435;28;20507;-67
2021/10/27 19:18:38;;;;;;;17.58;8.10;;;;;;;;;;5071092;28;20443;-66
2021/10/27 19:21:04;;;;;;;19.42;6.55;;;;;;;;;;5071067;28;20016;-67
2021/10/27 19:23:30;;;;;;;16.25;6.30;;;;;;;;;;5072318;28;20028;-67
2021/10/27 20:06:30;;;;;;;21.58;8.38;;;;;;;;;;5071429;28;20094;-67
2021/10/27 20:27:22;;;;;;;24.10;8.65;;;;;;;;;;5075123;28;20025;-67
2021/10/27 20:54:01;;;;;;;20.45;9.55;;;;;;;;;;5074223;28;20058;-66
2021/10/27 20:56:31;;;;;;;18.15;7.75;;;;;;;;;;5072510;28;20124;-67
2021/10/27 21:14:38;;;;;;;22.15;8.85;;;;;;;;;;5074211;28;20070;-66
2021/10/27 21:17:04;;;;;;;24.50;9.20;;;;;;;;;;5072277;28;20035;-66
2021/10/27 21:19:30;;;;;;;20.65;8.82;;;;;;;;;;5072478;28;20112;-64
2021/10/27 21:21:57;;;;;;;21.95;8.63;;;;;;;;;;5072586;28;20020;-68
2021/10/27 21:24:23;;;;;;;20.35;8.80;;;;;;;;;;5072587;28;20016;-69